createdAt,value
2022-10-18T00:01:43.878Z,13.15
2022-10-18T00:04:11.901Z,15.73
2022-10-18T00:06:43.376Z,17.95
2022-10-18T00:09:12.029Z,16.23
2022-10-18T00:11:41.662Z,12.70
2022-10-18T00:14:09.633Z,20.15
2022-10-18T00:16:37.674Z,18.17
2022-10-18T00:19:05.778Z,19.40
2022-10-18T00:21:33.871Z,16.55
2022-10-18T00:24:01.929Z,15.45
2022-10-18T00:26:31.866Z,17.02
2022-10-18T00:29:03.093Z,15.35
2022-10-18T00:31:33.184Z,15.00
2022-10-18T00:34:02.637Z,15.73
2022-10-18T00:36:34.290Z,16.98
2022-10-18T00:39:02.766Z,14.05
2022-10-18T00:41:33.058Z,15.80
2022-10-18T00:44:04.531Z,19.05
2022-10-18T00:46:34.065Z,17.27
2022-10-18T00:49:05.409Z,14.60
2022-10-18T00:51:48.214Z,18.23
2022-10-18T00:54:17.817Z,17.90
2022-10-18T00:56:46.319Z,14.75
2022-10-18T00:59:17.315Z,17.08
2022-10-18T01:01:46.395Z,17.17
2022-10-18T01:04:16.887Z,19.58
2022-10-18T01:06:52.835Z,16.83
2022-10-18T01:09:29.787Z,16.08
2022-10-18T01:12:15.518Z,19.00
2022-10-18T01:14:51.166Z,14.43
2022-10-18T01:17:22.098Z,20.65
2022-10-18T01:20:18.022Z,18.10
2022-10-18T01:22:49.829Z,21.10
2022-10-18T01:25:37.056Z,35.47
2022-10-18T01:28:25.415Z,20.83
2022-10-18T01:30:59.990Z,22.15
2022-10-18T01:33:34.403Z,19.75
2022-10-18T01:36:08.772Z,19.23
2022-10-18T01:38:39.566Z,21.67
2022-10-18T01:41:13.222Z,25.27
2022-10-18T01:43:44.874Z,22.33
2022-10-18T01:46:18.629Z,18.50
2022-10-18T01:48:47.334Z,18.55
2022-10-18T01:51:15.366Z,21.98
2022-10-18T01:53:43.370Z,25.45
2022-10-18T01:56:26.731Z,25.77
2022-10-18T01:59:04.281Z,20.85
2022-10-18T02:01:42.393Z,20.35
2022-10-18T02:04:21.496Z,21.38
2022-10-18T02:06:57.570Z,17.55
2022-10-18T02:09:35.142Z,17.63
2022-10-18T02:12:04.816Z,22.10
2022-10-18T02:14:34.334Z,17.80
2022-10-18T02:17:09.315Z,19.25
2022-10-18T02:19:42.001Z,21.17
2022-10-18T02:24:47.444Z,19.05
2022-10-18T02:27:15.747Z,23.88
2022-10-18T02:29:45.461Z,21.88
2022-10-18T02:32:21.323Z,24.52
2022-10-18T02:34:58.381Z,18.13
2022-10-18T02:37:30.943Z,21.55
2022-10-18T02:39:59.088Z,20.60
2022-10-18T02:42:27.082Z,17.98
2022-10-18T02:44:55.069Z,18.05
2022-10-18T02:47:24.465Z,17.80
2022-10-18T02:49:52.437Z,21.25
2022-10-18T02:52:20.434Z,18.13
2022-10-18T02:54:48.412Z,16.95
2022-10-18T02:57:16.400Z,19.55
2022-10-18T02:59:44.377Z,19.42
2022-10-18T03:02:12.401Z,18.65
2022-10-18T03:04:41.805Z,19.63
2022-10-18T03:07:09.798Z,27.35
2022-10-18T03:09:37.809Z,23.25
2022-10-18T03:12:06.171Z,22.10
2022-10-18T03:14:34.212Z,25.55
2022-10-18T03:17:02.204Z,22.55
2022-10-18T03:19:30.300Z,23.80
2022-10-18T03:21:59.667Z,24.77
2022-10-18T03:24:27.753Z,22.02
2022-10-18T03:26:55.711Z,23.17
2022-10-18T03:29:23.686Z,25.75
2022-10-18T03:31:51.758Z,24.73
2022-10-18T03:34:19.794Z,22.17
2022-10-18T03:36:47.786Z,23.17
2022-10-18T03:39:17.348Z,22.95
2022-10-18T03:41:45.461Z,23.83
2022-10-18T03:44:13.612Z,22.73
2022-10-18T03:46:41.793Z,23.92
2022-10-18T03:49:09.802Z,21.23
2022-10-18T03:51:37.788Z,21.02
2022-10-18T03:54:05.933Z,21.27
2022-10-18T03:56:35.323Z,24.33
2022-10-18T03:59:04.608Z,22.33
2022-10-18T04:01:32.706Z,28.17
2022-10-18T04:04:00.779Z,23.20
2022-10-18T04:06:28.883Z,26.83
2022-10-18T04:08:57.161Z,26.48
2022-10-18T04:11:25.132Z,20.88
2022-10-18T04:13:54.520Z,24.35
2022-10-18T04:16:22.545Z,21.35
2022-10-18T04:18:50.557Z,21.23
2022-10-18T04:21:18.584Z,18.48
2022-10-18T04:23:48.557Z,24.63
2022-10-18T04:26:17.255Z,18.95
2022-10-18T04:28:45.693Z,23.83
2022-10-18T04:31:15.407Z,17.05
2022-10-18T04:33:43.379Z,20.55
2022-10-18T04:36:11.379Z,17.00
2022-10-18T04:38:39.364Z,21.23
2022-10-18T04:41:07.599Z,21.17
2022-10-18T04:43:35.851Z,20.55
2022-10-18T04:46:04.062Z,22.98
2022-10-18T04:48:33.642Z,19.05
2022-10-18T04:51:01.660Z,22.08
2022-10-18T04:53:29.633Z,25.60
2022-10-18T04:55:57.650Z,23.02
2022-10-18T04:58:25.905Z,29.08
2022-10-18T05:00:53.978Z,32.13
2022-10-18T05:03:22.011Z,31.35
2022-10-18T05:06:04.448Z,34.10
2022-10-18T05:08:33.577Z,38.58
2022-10-18T05:11:02.448Z,30.80
2022-10-18T05:13:31.132Z,27.20
2022-10-18T05:15:59.589Z,29.23
2022-10-18T05:18:28.022Z,23.23
2022-10-18T05:20:57.758Z,28.80
2022-10-18T05:23:25.957Z,36.33
2022-10-18T05:25:54.021Z,31.27
2022-10-18T05:31:12.224Z,28.02
2022-10-18T05:33:40.484Z,35.47
2022-10-18T05:36:10.785Z,28.45
2022-10-18T05:38:42.327Z,34.67
2022-10-18T05:41:10.729Z,33.22
2022-10-18T05:43:38.766Z,28.13
2022-10-18T05:46:13.695Z,26.75
2022-10-18T05:48:43.283Z,30.67
2022-10-18T05:51:12.645Z,34.17
2022-10-18T05:53:40.620Z,36.25
2022-10-18T05:56:11.878Z,36.75
2022-10-18T05:58:40.194Z,31.25
2022-10-18T06:01:08.733Z,28.70
2022-10-18T06:03:37.318Z,32.45
2022-10-18T06:06:07.525Z,28.55
2022-10-18T06:08:37.272Z,30.95
2022-10-18T06:11:08.320Z,25.92
2022-10-18T06:13:36.468Z,22.73
2022-10-18T06:16:04.496Z,27.05
2022-10-18T06:18:32.472Z,26.27
2022-10-18T06:21:00.918Z,27.02
2022-10-18T06:23:29.421Z,27.33
2022-10-18T06:26:01.579Z,27.88
2022-10-18T06:28:30.728Z,23.10
2022-10-18T06:30:59.205Z,22.52
2022-10-18T06:33:27.731Z,29.25
2022-10-18T06:35:57.249Z,26.73
2022-10-18T06:38:25.388Z,28.10
2022-10-18T06:40:53.376Z,31.23
2022-10-18T06:43:23.153Z,30.88
2022-10-18T06:45:51.885Z,27.85
2022-10-18T06:50:55.174Z,24.42
2022-10-18T06:53:23.197Z,33.88
2022-10-18T06:55:51.155Z,32.08
2022-10-18T06:58:19.483Z,27.58
2022-10-18T07:00:48.867Z,31.17
2022-10-18T07:03:16.838Z,26.35
2022-10-18T07:05:44.846Z,26.27
2022-10-18T07:08:12.873Z,25.08
2022-10-18T07:10:41.128Z,25.48
2022-10-18T07:13:31.048Z,26.30
2022-10-18T07:16:06.878Z,28.98
2022-10-18T07:18:35.736Z,31.58
2022-10-18T07:21:07.437Z,26.13
2022-10-18T07:23:36.120Z,32.22
2022-10-18T07:26:06.391Z,27.50
2022-10-18T07:28:34.825Z,30.52
2022-10-18T07:31:07.542Z,32.22
2022-10-18T07:36:03.600Z,32.55
2022-10-18T07:38:31.652Z,30.38
2022-10-18T07:41:00.454Z,25.40
2022-10-18T07:43:28.688Z,30.08
2022-10-18T07:45:58.343Z,25.20
2022-10-18T07:48:28.628Z,36.60
2022-10-18T07:51:00.037Z,32.40
2022-10-18T07:53:28.194Z,32.28
2022-10-18T07:55:59.764Z,27.95
2022-10-18T07:58:28.940Z,28.27
2022-10-18T08:00:56.944Z,28.10
2022-10-18T08:03:24.964Z,25.88
2022-10-18T08:05:55.502Z,25.85
2022-10-18T08:08:24.954Z,34.83
2022-10-18T08:10:52.943Z,32.72
2022-10-18T08:13:21.502Z,37.53
2022-10-18T08:15:49.662Z,29.17
2022-10-18T08:18:17.641Z,27.77
2022-10-18T08:20:46.433Z,22.80
2022-10-18T08:23:15.782Z,38.08
2022-10-18T08:25:43.742Z,30.30
2022-10-18T08:28:13.853Z,27.08
2022-10-18T08:30:41.840Z,27.05
2022-10-18T08:33:09.871Z,31.88
2022-10-18T08:35:38.053Z,33.25
2022-10-18T08:38:06.161Z,33.55
2022-10-18T08:40:36.187Z,32.95
2022-10-18T08:43:10.246Z,29.13
2022-10-18T08:45:43.164Z,29.83
2022-10-18T08:48:26.803Z,34.88
2022-10-18T08:50:57.613Z,19.50
2022-10-18T08:53:30.180Z,24.48
2022-10-18T08:58:33.673Z,21.08
2022-10-18T09:01:11.983Z,18.60
2022-10-18T09:04:01.988Z,19.83
2022-10-18T09:06:35.956Z,19.90
2022-10-18T09:09:21.614Z,18.70
2022-10-18T09:12:03.928Z,17.10
2022-10-18T09:14:44.516Z,21.00
2022-10-18T09:17:23.737Z,17.15
2022-10-18T09:20:02.612Z,19.80
2022-10-18T09:22:44.629Z,19.38
2022-10-18T09:25:20.495Z,16.50
2022-10-18T09:27:54.508Z,21.67
2022-10-18T09:30:34.759Z,18.60
2022-10-18T09:33:16.080Z,18.08
2022-10-18T09:35:50.068Z,21.05
2022-10-18T09:38:23.081Z,16.27
2022-10-18T09:40:57.102Z,15.48
2022-10-18T09:43:33.670Z,15.45
2022-10-18T09:46:03.156Z,18.50
2022-10-18T09:48:35.909Z,15.57
2022-10-18T09:51:09.242Z,20.52
2022-10-18T09:53:44.582Z,16.25
2022-10-18T09:56:16.838Z,17.17
2022-10-18T09:58:47.692Z,15.55
2022-10-18T10:01:19.468Z,20.70
2022-10-18T10:03:47.552Z,9.75
2022-10-18T10:06:25.305Z,13.30
2022-10-18T10:09:00.795Z,14.40
2022-10-18T10:11:35.448Z,12.95
2022-10-18T10:16:48.603Z,15.15
2022-10-18T10:19:21.560Z,19.10
2022-10-18T10:21:51.961Z,13.43
2022-10-18T10:24:27.438Z,11.95
2022-10-18T10:27:04.474Z,11.73
2022-10-18T10:30:01.543Z,16.60
2022-10-18T10:32:45.405Z,15.43
2022-10-18T10:35:33.948Z,13.13
2022-10-18T10:38:25.010Z,15.90
2022-10-18T10:40:53.468Z,16.23
2022-10-18T10:43:36.953Z,10.63
2022-10-18T10:46:09.805Z,14.88
2022-10-18T10:48:48.675Z,17.63
2022-10-18T10:51:19.583Z,15.07
2022-10-18T10:53:52.418Z,17.13
2022-10-18T10:56:26.709Z,20.88
2022-10-18T10:58:56.527Z,9.80
2022-10-18T11:01:29.917Z,16.48
2022-10-18T11:04:00.811Z,18.95
2022-10-18T11:06:59.133Z,16.88
2022-10-18T11:09:49.397Z,17.85
2022-10-18T11:12:25.910Z,12.15
2022-10-18T11:15:02.983Z,11.15
2022-10-18T11:17:37.162Z,12.60
2022-10-18T11:20:16.348Z,17.73
2022-10-18T11:22:50.768Z,11.25
2022-10-18T11:25:19.231Z,14.10
2022-10-18T11:27:55.863Z,11.38
2022-10-18T11:30:42.277Z,8.98
2022-10-18T11:33:33.592Z,14.88
2022-10-18T11:36:20.677Z,10.48
2022-10-18T11:38:54.143Z,10.98
2022-10-18T11:41:45.318Z,16.70
2022-10-18T11:44:24.586Z,12.63
2022-10-18T11:47:03.057Z,14.48
2022-10-18T11:49:47.358Z,15.35
2022-10-18T11:52:21.915Z,12.05
2022-10-18T11:55:02.669Z,14.82
2022-10-18T11:57:44.474Z,11.52
2022-10-18T12:00:39.650Z,9.57
2022-10-18T12:03:23.964Z,14.13
2022-10-18T12:05:54.821Z,12.02
2022-10-18T12:08:26.747Z,9.02
2022-10-18T12:11:06.646Z,11.05
2022-10-18T12:13:40.151Z,11.93
2022-10-18T12:16:10.610Z,9.68
2022-10-18T12:18:48.659Z,15.15
2022-10-18T12:21:25.473Z,16.60
2022-10-18T12:23:56.753Z,10.00
2022-10-18T12:26:26.258Z,12.13
2022-10-18T12:29:18.303Z,12.07
2022-10-18T12:31:49.505Z,14.10
2022-10-18T12:34:28.683Z,9.95
2022-10-18T12:37:29.421Z,11.77
2022-10-18T12:40:12.168Z,10.75
2022-10-18T12:42:45.289Z,12.13
2022-10-18T12:45:29.002Z,15.20
2022-10-18T12:48:01.232Z,14.77
2022-10-18T12:50:38.199Z,7.82
2022-10-18T12:53:20.312Z,9.43
2022-10-18T12:55:51.647Z,14.52
2022-10-18T12:58:29.409Z,10.23
2022-10-18T13:01:01.346Z,8.63
2022-10-18T13:03:50.659Z,10.68
2022-10-18T13:06:18.765Z,16.08
2022-10-18T13:08:51.157Z,10.35
2022-10-18T13:14:19.095Z,10.03
2022-10-18T13:17:02.175Z,10.95
2022-10-18T13:19:39.352Z,8.52
2022-10-18T13:22:20.484Z,10.95
2022-10-18T13:25:02.347Z,9.63
2022-10-18T13:27:43.153Z,12.00
2022-10-18T13:30:32.640Z,12.05
2022-10-18T13:33:15.230Z,7.07
2022-10-18T13:38:47.275Z,14.27
2022-10-18T13:41:19.425Z,12.90
2022-10-18T13:44:11.520Z,7.07
2022-10-18T13:47:14.992Z,14.73
2022-10-18T13:50:12.160Z,10.07
2022-10-18T13:53:13.010Z,6.55
2022-10-18T13:55:55.890Z,9.25
2022-10-18T13:58:41.074Z,10.30
2022-10-18T14:01:24.438Z,6.03
2022-10-18T14:04:40.958Z,10.90
2022-10-18T14:07:11.537Z,7.63
2022-10-18T14:09:52.270Z,10.48
2022-10-18T14:15:05.296Z,11.18
2022-10-18T14:17:41.895Z,8.65
2022-10-18T14:20:20.782Z,9.50
2022-10-18T14:22:54.480Z,6.60
2022-10-18T14:25:28.380Z,7.22
2022-10-18T14:28:12.596Z,8.50
2022-10-18T14:30:54.805Z,10.85
2022-10-18T14:33:28.532Z,8.75
2022-10-18T14:36:00.767Z,11.40
2022-10-18T14:38:28.923Z,14.05
2022-10-18T14:41:07.147Z,6.93
2022-10-18T14:43:35.247Z,9.30
2022-10-18T14:46:12.910Z,6.05
2022-10-18T14:48:40.950Z,5.50
2022-10-18T14:51:14.795Z,7.43
2022-10-18T14:53:42.945Z,10.77
2022-10-18T14:56:23.333Z,8.27
2022-10-18T14:58:52.488Z,6.95
2022-10-18T15:01:25.729Z,11.18
2022-10-18T15:03:58.907Z,7.93
2022-10-18T15:06:27.430Z,7.47
2022-10-18T15:08:58.373Z,10.55
2022-10-18T15:11:27.388Z,10.90
2022-10-18T15:13:57.901Z,8.30
2022-10-18T15:16:29.096Z,10.23
2022-10-18T15:19:05.236Z,11.48
2022-10-18T15:21:35.332Z,7.00
2022-10-18T15:24:30.435Z,10.43
2022-10-18T15:27:03.301Z,10.07
2022-10-18T15:29:36.410Z,9.55
2022-10-18T15:32:17.462Z,10.15
2022-10-18T15:34:46.003Z,9.80
2022-10-18T15:37:32.309Z,10.23
2022-10-18T15:40:35.958Z,10.82
2022-10-18T15:43:06.846Z,9.00
2022-10-18T15:48:24.085Z,10.25
2022-10-18T15:50:53.695Z,13.60
2022-10-18T15:53:43.906Z,16.27
2022-10-18T15:56:27.015Z,20.73
2022-10-18T15:58:57.029Z,19.83
2022-10-18T16:01:33.490Z,23.85
2022-10-18T16:04:06.255Z,21.73
2022-10-18T16:06:35.419Z,19.80
2022-10-18T16:09:03.395Z,12.35
2022-10-18T16:11:31.456Z,15.27
2022-10-18T16:14:00.539Z,19.13
2022-10-18T16:16:30.371Z,33.88
2022-10-18T16:18:58.846Z,15.13
2022-10-18T16:21:31.483Z,26.88
2022-10-18T16:26:28.697Z,17.52
2022-10-18T16:28:58.098Z,26.73
2022-10-18T16:31:27.830Z,18.17
2022-10-18T16:33:56.662Z,13.43
2022-10-18T16:36:27.574Z,31.15
2022-10-18T16:38:57.797Z,23.15
2022-10-18T16:41:25.879Z,28.50
2022-10-18T16:43:54.337Z,16.63
2022-10-18T16:46:24.973Z,18.13
2022-10-18T16:48:53.209Z,15.07
2022-10-18T16:51:21.773Z,22.90
2022-10-18T16:53:50.149Z,15.15
2022-10-18T16:56:22.410Z,14.43
2022-10-18T16:58:51.665Z,16.88
2022-10-18T17:01:23.076Z,24.85
2022-10-18T17:03:52.594Z,18.80
2022-10-18T17:06:24.012Z,16.48
2022-10-18T17:08:53.580Z,21.38
2022-10-18T17:11:24.569Z,18.10
2022-10-18T17:13:52.963Z,16.40
2022-10-18T17:19:02.260Z,17.55
2022-10-18T17:21:31.973Z,14.60
2022-10-18T17:24:01.631Z,18.88
2022-10-18T17:26:31.586Z,19.95
2022-10-18T17:29:01.855Z,18.08
2022-10-18T17:31:31.503Z,12.60
2022-10-18T17:34:03.735Z,14.93
2022-10-18T17:36:33.023Z,20.70
2022-10-18T17:39:01.451Z,12.68
2022-10-18T17:41:31.166Z,17.10
2022-10-18T17:43:59.425Z,14.90
2022-10-18T17:46:27.831Z,12.43
2022-10-18T17:48:56.448Z,24.52
2022-10-18T17:51:25.334Z,24.10
2022-10-18T17:53:53.856Z,19.48
2022-10-18T17:56:24.065Z,24.13
2022-10-18T17:58:54.438Z,23.30
2022-10-18T18:01:24.509Z,21.08
2022-10-18T18:03:58.214Z,14.50
2022-10-18T18:06:31.436Z,15.18
2022-10-18T18:09:01.309Z,15.77
2022-10-18T18:11:30.286Z,16.45
2022-10-18T18:14:01.062Z,14.52
2022-10-18T18:16:31.401Z,16.25
2022-10-18T18:19:00.111Z,14.50
2022-10-18T18:21:29.210Z,13.82
2022-10-18T18:24:00.381Z,21.80
2022-10-18T18:26:29.008Z,31.10
2022-10-18T18:28:58.338Z,29.13
2022-10-18T18:31:30.828Z,39.95
2022-10-18T18:34:03.192Z,38.58
2022-10-18T18:36:33.101Z,34.75
2022-10-18T18:39:01.355Z,36.47
2022-10-18T18:41:30.298Z,27.23
2022-10-18T18:44:00.473Z,21.85
2022-10-18T18:46:33.405Z,21.02
2022-10-18T18:49:02.332Z,20.38
2022-10-18T18:51:32.640Z,19.58
2022-10-18T18:54:01.315Z,26.83
2022-10-18T18:56:30.420Z,39.92
2022-10-18T18:59:01.625Z,45.00
2022-10-18T19:01:33.019Z,42.28
2022-10-18T19:04:01.956Z,45.63
2022-10-18T19:06:33.074Z,42.95
2022-10-18T19:09:04.539Z,42.22
2022-10-18T19:11:34.491Z,45.08
2022-10-18T19:14:03.502Z,39.42
2022-10-18T19:16:34.862Z,27.05
2022-10-18T19:19:07.348Z,25.20
2022-10-18T19:21:38.507Z,18.40
2022-10-18T19:24:07.447Z,21.02
2022-10-18T19:26:38.136Z,22.80
2022-10-18T19:29:10.326Z,19.13
2022-10-18T19:31:40.673Z,22.58
2022-10-18T19:34:11.346Z,23.63
2022-10-18T19:36:41.650Z,26.05
2022-10-18T19:39:13.467Z,25.83
2022-10-18T19:41:42.192Z,30.60
2022-10-18T19:44:10.592Z,24.00
2022-10-18T19:46:43.863Z,24.58
2022-10-18T19:49:13.550Z,23.83
2022-10-18T19:51:42.656Z,17.52
2022-10-18T19:54:12.825Z,18.05
2022-10-18T19:56:49.272Z,25.20
2022-10-18T19:59:19.055Z,21.08
2022-10-18T20:01:48.830Z,18.95
2022-10-18T20:04:17.738Z,18.67
2022-10-18T20:06:46.071Z,20.77
2022-10-18T20:09:19.343Z,15.48
2022-10-18T20:11:48.959Z,15.23
2022-10-18T20:14:17.052Z,25.98
2022-10-18T20:16:45.078Z,21.42
2022-10-18T20:19:14.531Z,27.35
2022-10-18T20:21:42.537Z,34.22
2022-10-18T20:24:11.996Z,29.83
2022-10-18T20:26:40.727Z,26.13
2022-10-18T20:29:08.863Z,29.80
2022-10-18T20:31:39.199Z,21.83
2022-10-18T20:34:09.980Z,20.15
2022-10-18T20:36:39.415Z,17.23
2022-10-18T20:39:08.164Z,13.43
2022-10-18T20:44:43.525Z,27.35
2022-10-18T20:47:11.496Z,33.42
2022-10-18T20:49:39.477Z,32.95
2022-10-18T20:52:08.847Z,33.00
2022-10-18T20:54:36.840Z,28.58
2022-10-18T20:57:05.017Z,25.92
2022-10-18T20:59:33.675Z,28.80
2022-10-18T21:02:01.810Z,23.48
2022-10-18T21:04:29.911Z,28.35
2022-10-18T21:06:58.408Z,20.08
2022-10-18T21:09:27.964Z,28.42
2022-10-18T21:11:56.352Z,17.42
2022-10-18T21:14:25.616Z,19.77
2022-10-18T21:16:54.039Z,17.23
2022-10-18T21:19:24.349Z,15.10
2022-10-18T21:21:53.912Z,16.60
2022-10-18T21:24:25.538Z,15.98
2022-10-18T21:26:55.782Z,13.82
2022-10-18T21:29:25.025Z,19.80
2022-10-18T21:31:58.280Z,15.20
2022-10-18T21:34:26.655Z,14.50
2022-10-18T21:36:54.908Z,16.38
2022-10-18T21:42:00.463Z,19.08
2022-10-18T21:44:28.471Z,20.17
2022-10-18T21:46:57.156Z,18.25
2022-10-18T21:49:26.374Z,17.20
2022-10-18T21:51:54.373Z,15.40
2022-10-18T21:54:22.417Z,22.98
2022-10-18T21:56:51.228Z,14.63
2022-10-18T21:59:20.674Z,17.35
2022-10-18T22:01:48.792Z,15.10
2022-10-18T22:04:22.205Z,13.18
2022-10-18T22:06:50.877Z,17.38
2022-10-18T22:09:19.356Z,15.63
2022-10-18T22:11:50.449Z,16.13
2022-10-18T22:14:18.465Z,16.67
2022-10-18T22:16:47.926Z,13.88
2022-10-18T22:19:15.969Z,13.85
2022-10-18T22:21:43.994Z,14.25
2022-10-18T22:24:11.997Z,13.75
2022-10-18T22:26:41.765Z,13.25
2022-10-18T22:29:12.948Z,14.30
2022-10-18T22:31:43.886Z,19.30
2022-10-18T22:34:15.852Z,16.83
2022-10-18T22:36:43.962Z,24.15
2022-10-18T22:39:14.407Z,18.77
2022-10-18T22:41:43.859Z,17.77
2022-10-18T22:44:13.406Z,21.60
2022-10-18T22:46:41.470Z,17.52
2022-10-18T22:49:09.780Z,17.95
2022-10-18T22:51:39.332Z,18.58
2022-10-18T22:54:08.203Z,18.80
2022-10-18T22:56:36.259Z,19.58
2022-10-18T22:59:04.727Z,19.27
2022-10-18T23:01:32.848Z,15.68
2022-10-18T23:04:01.836Z,15.40
2022-10-18T23:06:31.475Z,21.20
2022-10-18T23:09:05.046Z,14.45
2022-10-18T23:11:33.222Z,16.52
2022-10-18T23:14:03.781Z,14.07
2022-10-18T23:16:32.023Z,18.42
2022-10-18T23:19:00.482Z,11.80
2022-10-18T23:21:29.433Z,13.50
2022-10-18T23:23:58.254Z,14.75
2022-10-18T23:26:28.973Z,14.80
2022-10-18T23:28:57.427Z,13.23
2022-10-18T23:31:27.176Z,14.15
2022-10-18T23:33:57.504Z,13.60
2022-10-18T23:36:26.552Z,14.77
2022-10-18T23:38:55.142Z,15.40
2022-10-18T23:41:23.622Z,12.95
2022-10-18T23:43:53.353Z,19.02
2022-10-18T23:46:21.798Z,16.80
2022-10-18T23:48:49.981Z,21.25
2022-10-18T23:51:18.621Z,15.55
2022-10-18T23:53:46.828Z,16.73
2022-10-18T23:56:16.969Z,14.35
2022-10-18T23:58:46.127Z,15.10
